Time;durP1;ratioP1;P1;durP2;ratioP2;P2;SDS_P1;SDS_P2;PMS_P1;PMS_P2;Temp;Humidity;BMP_temperature;BMP_pressure;BME280_temperature;BME280_humidity;BME280_pressure;Samples;Min_cycle;Max_cycle;Signal;HPM_P1;HPM_P2
2023/07/26 00:00:56;;;;;;;9.70;3.80;;;12.30;99.90;;;;;;5048771;28;20072;-59
2023/07/26 00:03:24;;;;;;;9.63;3.90;;;12.20;99.90;;;;;;5048277;28;20037;-60
2023/07/26 00:05:55;;;;;;;7.70;4.00;;;12.20;99.90;;;;;;5042767;28;20509;-59
2023/07/26 00:08:23;;;;;;;8.32;3.58;;;12.20;99.90;;;;;;5046933;28;20049;-60
2023/07/26 00:10:51;;;;;;;13.00;4.03;;;12.20;99.90;;;;;;5047588;28;20485;-61
2023/07/26 00:13:18;;;;;;;9.75;4.38;;;12.20;99.90;;;;;;5047013;28;20394;-59
2023/07/26 00:15:46;;;;;;;8.40;4.18;;;12.20;99.90;;;;;;5048251;28;20049;-59
2023/07/26 00:18:14;;;;;;;7.03;3.63;;;12.10;99.90;;;;;;5048352;28;20444;-58
2023/07/26 00:20:41;;;;;;;9.60;4.45;;;12.10;99.90;;;;;;5047125;28;20064;-61
2023/07/26 00:23:09;;;;;;;9.60;3.95;;;12.20;99.90;;;;;;5044936;28;20404;-60
2023/07/26 00:25:37;;;;;;;10.35;3.90;;;12.20;99.90;;;;;;5047335;28;20044;-60
2023/07/26 00:28:04;;;;;;;9.20;4.07;;;12.20;99.90;;;;;;5044805;28;20045;-61
2023/07/26 00:30:32;;;;;;;11.10;4.13;;;12.30;99.90;;;;;;5045484;28;20049;-59
2023/07/26 00:33:00;;;;;;;7.63;3.03;;;12.30;99.90;;;;;;5047587;28;20044;-61
2023/07/26 00:35:35;;;;;;;8.55;4.28;;;12.30;99.90;;;;;;5043680;28;20052;-60
2023/07/26 00:38:03;;;;;;;8.18;3.30;;;12.40;99.90;;;;;;5045371;28;20751;-61
2023/07/26 00:40:30;;;;;;;9.43;3.70;;;12.40;99.90;;;;;;5045584;28;20049;-57
2023/07/26 00:42:59;;;;;;;8.70;3.80;;;12.50;99.90;;;;;;5047110;28;20071;-62
2023/07/26 00:45:29;;;;;;;9.05;4.03;;;12.50;99.90;;;;;;5048072;28;20056;-60
2023/07/26 00:47:57;;;;;;;8.80;3.90;;;12.50;99.90;;;;;;5044708;28;20045;-61
2023/07/26 00:50:26;;;;;;;8.05;3.55;;;12.60;99.90;;;;;;5047295;28;20037;-61
2023/07/26 00:52:54;;;;;;;11.48;4.10;;;12.60;99.90;;;;;;5041822;28;20489;-61
2023/07/26 00:55:22;;;;;;;7.05;3.47;;;12.60;99.90;;;;;;5038127;28;20037;-60
2023/07/26 00:57:50;;;;;;;8.25;3.75;;;12.60;99.90;;;;;;5044253;28;20048;-60
2023/07/26 01:00:18;;;;;;;6.85;3.10;;;12.70;99.90;;;;;;5047549;28;20045;-60
2023/07/26 01:02:47;;;;;;;6.85;3.30;;;12.80;99.90;;;;;;5042902;28;20041;-58
2023/07/26 01:05:16;;;;;;;11.18;4.22;;;12.80;99.90;;;;;;5045135;28;20056;-61
2023/07/26 01:08:06;;;;;;;11.60;3.95;;;12.80;99.90;;;;;;5044831;28;20068;-61
2023/07/26 01:10:59;;;;;;;;;;;12.80;99.90;;;;;;5045277;28;20511;-60
2023/07/26 01:13:51;;;;;;;6.03;2.90;;;12.80;99.90;;;;;;5048611;28;20312;-61
2023/07/26 01:16:27;;;;;;;9.00;3.10;;;12.70;99.90;;;;;;5045452;28;20420;-58
2023/07/26 01:18:55;;;;;;;8.43;2.92;;;12.70;99.90;;;;;;5041461;28;20048;-62
2023/07/26 01:21:23;;;;;;;7.20;2.70;;;12.70;99.90;;;;;;5045900;28;20060;-61
2023/07/26 01:23:51;;;;;;;8.70;2.97;;;12.60;99.90;;;;;;5046629;28;20045;-57
2023/07/26 01:26:18;;;;;;;7.07;3.13;;;12.50;99.90;;;;;;5047534;28;20476;-59
2023/07/26 01:28:46;;;;;;;5.57;2.40;;;12.40;99.90;;;;;;5044906;28;20472;-57
2023/07/26 01:31:16;;;;;;;8.95;2.88;;;12.30;99.90;;;;;;5037087;28;20033;-60
2023/07/26 01:33:48;;;;;;;8.15;3.15;;;12.20;99.90;;;;;;5045196;28;20037;-56
2023/07/26 01:36:16;;;;;;;5.55;2.67;;;12.10;99.90;;;;;;5041376;28;20056;-56
2023/07/26 01:38:45;;;;;;;5.50;2.40;;;12.10;99.90;;;;;;5045913;28;20049;-58
2023/07/26 01:41:14;;;;;;;5.47;2.35;;;12.10;99.90;;;;;;5045993;28;20037;-57
2023/07/26 01:43:43;;;;;;;5.57;2.70;;;12.10;99.90;;;;;;5041969;28;20052;-57
2023/07/26 01:46:14;;;;;;;6.90;2.58;;;12.10;99.90;;;;;;5047016;28;20052;-56
2023/07/26 01:48:42;;;;;;;6.53;2.63;;;12.10;99.90;;;;;;5044264;28;20037;-58
2023/07/26 01:51:09;;;;;;;7.00;2.78;;;12.10;99.90;;;;;;5047534;28;20044;-58
2023/07/26 01:53:37;;;;;;;7.28;2.33;;;12.00;99.90;;;;;;5035686;28;20033;-58
2023/07/26 01:56:05;;;;;;;7.85;2.60;;;12.00;99.90;;;;;;5043849;28;20044;-56
2023/07/26 01:58:33;;;;;;;8.55;3.08;;;11.90;99.90;;;;;;5047060;28;20037;-55
2023/07/26 02:01:02;;;;;;;8.52;2.45;;;11.90;99.90;;;;;;5049169;28;20056;-56
2023/07/26 02:03:30;;;;;;;6.05;2.40;;;11.80;99.90;;;;;;5048817;28;20044;-56
2023/07/26 02:05:58;;;;;;;6.07;2.33;;;11.70;99.90;;;;;;5057443;28;20044;-57
2023/07/26 02:08:26;;;;;;;5.13;2.38;;;11.70;99.90;;;;;;5052487;28;20049;-57
2023/07/26 02:10:54;;;;;;;4.97;2.17;;;11.60;99.90;;;;;;5051777;28;20067;-57
2023/07/26 02:13:22;;;;;;;8.10;2.70;;;11.60;99.90;;;;;;5053484;28;20400;-56
2023/07/26 02:15:49;;;;;;;6.85;2.53;;;11.60;99.90;;;;;;5052792;28;20404;-56
2023/07/26 02:18:18;;;;;;;8.00;2.90;;;11.60;99.90;;;;;;5052191;28;20052;-59
2023/07/26 02:20:45;;;;;;;9.10;4.50;;;11.50;99.90;;;;;;5053644;28;20049;-59
2023/07/26 02:23:13;;;;;;;6.53;2.70;;;11.50;99.90;;;;;;5051760;28;20045;-60
2023/07/26 02:25:41;;;;;;;7.28;2.75;;;11.40;99.90;;;;;;5053774;28;20489;-61
2023/07/26 02:28:09;;;;;;;8.23;2.85;;;11.40;99.90;;;;;;5051223;28;20536;-61
2023/07/26 02:30:37;;;;;;;7.65;3.50;;;11.40;99.90;;;;;;5035666;28;20044;-60
2023/07/26 02:33:05;;;;;;;7.20;2.60;;;11.40;99.90;;;;;;5051668;28;20045;-61
2023/07/26 02:35:33;;;;;;;4.70;2.95;;;11.30;99.90;;;;;;5056307;28;20530;-58
2023/07/26 02:38:04;;;;;;;6.15;3.30;;;11.30;99.90;;;;;;5052259;28;20515;-59
2023/07/26 02:40:31;;;;;;;8.30;2.75;;;11.20;99.90;;;;;;5052291;28;20048;-56
2023/07/26 02:42:59;;;;;;;9.27;3.42;;;11.20;99.90;;;;;;5051189;28;20052;-62
2023/07/26 02:45:26;;;;;;;8.52;3.25;;;11.20;99.90;;;;;;5051211;28;20044;-60
2023/07/26 02:47:54;;;;;;;6.30;3.15;;;11.20;99.90;;;;;;5049085;28;20048;-61
2023/07/26 02:50:22;;;;;;;6.57;3.15;;;11.20;99.90;;;;;;5047064;28;20067;-61
2023/07/26 02:52:49;;;;;;;7.05;2.90;;;11.20;99.90;;;;;;5046905;28;20618;-60
2023/07/26 02:55:17;;;;;;;5.57;2.95;;;11.20;99.90;;;;;;5050585;28;20048;-61
2023/07/26 02:57:44;;;;;;;7.70;2.67;;;11.20;99.90;;;;;;5045961;28;20053;-61
2023/07/26 03:00:12;;;;;;;6.35;2.97;;;11.20;99.90;;;;;;5051165;28;20076;-61
2023/07/26 03:02:40;;;;;;;7.10;2.60;;;11.20;99.90;;;;;;5034559;28;20468;-60
2023/07/26 03:05:08;;;;;;;8.50;3.10;;;11.20;99.90;;;;;;5049509;28;20049;-61
2023/07/26 03:07:36;;;;;;;6.38;3.20;;;11.10;99.90;;;;;;5050738;28;20045;-61
2023/07/26 03:10:04;;;;;;;6.35;2.92;;;11.10;99.90;;;;;;5052802;28;20131;-59
2023/07/26 03:12:31;;;;;;;9.35;3.00;;;11.10;99.90;;;;;;5049687;28;20056;-59
2023/07/26 03:15:00;;;;;;;7.30;2.88;;;11.00;99.90;;;;;;5052433;28;20044;-62
2023/07/26 03:17:27;;;;;;;8.45;3.10;;;11.00;99.90;;;;;;5048945;28;20053;-60
2023/07/26 03:19:55;;;;;;;8.10;3.53;;;11.00;99.90;;;;;;5049752;28;20052;-62
2023/07/26 03:22:23;;;;;;;5.70;2.75;;;10.90;99.90;;;;;;5052082;28;20041;-61
2023/07/26 03:24:50;;;;;;;7.28;3.17;;;10.90;99.90;;;;;;5052758;28;20041;-62
2023/07/26 03:27:18;;;;;;;8.60;3.63;;;10.90;99.90;;;;;;5034001;28;20045;-59
2023/07/26 03:29:48;;;;;;;7.30;3.08;;;10.80;99.90;;;;;;5051444;28;20045;-59
2023/07/26 03:32:15;;;;;;;10.52;3.67;;;10.80;99.90;;;;;;5034731;28;20053;-61
2023/07/26 03:34:43;;;;;;;7.78;3.50;;;10.80;99.90;;;;;;5054828;28;20068;-60
2023/07/26 03:37:11;;;;;;;7.32;3.50;;;10.80;99.90;;;;;;5048507;28;20041;-59
2023/07/26 03:39:41;;;;;;;7.03;3.28;;;10.80;99.90;;;;;;5052380;28;20045;-60
2023/07/26 03:42:08;;;;;;;7.95;3.10;;;10.70;99.90;;;;;;5052147;28;20045;-60
2023/07/26 03:44:36;;;;;;;9.85;3.72;;;10.70;99.90;;;;;;5046379;28;20044;-61
2023/07/26 03:47:06;;;;;;;9.70;3.85;;;10.60;99.90;;;;;;5050970;28;20041;-61
2023/07/26 03:49:34;;;;;;;12.45;4.10;;;10.60;99.90;;;;;;5052188;28;20041;-60
2023/07/26 03:52:03;;;;;;;10.18;4.03;;;10.50;99.90;;;;;;5046058;28;20048;-60
2023/07/26 03:54:31;;;;;;;10.60;4.30;;;10.50;99.90;;;;;;5051231;28;20052;-61
2023/07/26 03:57:00;;;;;;;11.75;4.70;;;10.40;99.90;;;;;;5046391;28;20068;-61
2023/07/26 03:59:28;;;;;;;10.45;4.72;;;10.30;99.90;;;;;;5035099;28;20064;-60
2023/07/26 04:01:55;;;;;;;11.30;4.00;;;10.30;99.90;;;;;;5049137;28;20059;-58
2023/07/26 04:04:23;;;;;;;8.07;3.33;;;10.30;99.90;;;;;;5053333;28;20052;-59
2023/07/26 04:06:51;;;;;;;10.60;3.35;;;10.20;99.90;;;;;;5050412;28;20060;-57
2023/07/26 04:09:18;;;;;;;8.88;3.70;;;10.20;99.90;;;;;;5049930;28;20365;-56
2023/07/26 04:11:46;;;;;;;10.52;4.05;;;10.20;99.90;;;;;;5052601;28;20052;-56
2023/07/26 04:14:14;;;;;;;13.82;3.78;;;10.10;99.90;;;;;;5049034;28;20048;-57
2023/07/26 04:16:41;;;;;;;7.28;3.65;;;10.10;99.90;;;;;;5050491;28;20064;-59
2023/07/26 04:19:09;;;;;;;9.18;3.67;;;10.10;99.90;;;;;;5051938;28;20036;-57
2023/07/26 04:21:37;;;;;;;7.40;3.88;;;10.10;99.90;;;;;;5049474;28;20048;-57
2023/07/26 04:24:07;;;;;;;;;;;10.00;99.90;;;;;;5050685;28;20071;-57
2023/07/26 04:26:35;;;;;;;8.55;3.20;;;10.10;99.90;;;;;;5047036;28;19921;-57
2023/07/26 04:29:02;;;;;;;12.52;3.85;;;10.00;99.90;;;;;;5046905;28;20045;-55
2023/07/26 04:31:30;;;;;;;9.57;3.75;;;10.00;99.90;;;;;;5050418;28;20045;-56
2023/07/26 04:33:57;;;;;;;7.93;2.95;;;10.00;99.90;;;;;;5053521;28;20055;-58
2023/07/26 04:36:25;;;;;;;6.53;3.50;;;11.30;99.90;;;;;;5045875;28;20041;-60
2023/07/26 04:38:53;;;;;;;9.60;3.47;;;10.00;99.90;;;;;;5050145;28;20053;-60
2023/07/26 04:41:20;;;;;;;7.30;3.53;;;10.00;99.90;;;;;;5050462;28;20064;-56
2023/07/26 04:43:48;;;;;;;8.57;3.38;;;10.00;99.90;;;;;;5049318;28;20389;-57
2023/07/26 04:46:16;;;;;;;6.13;3.42;;;10.00;99.90;;;;;;5044816;28;20048;-57
2023/07/26 04:48:44;;;;;;;10.60;4.03;;;10.00;99.90;;;;;;5038568;28;20067;-58
2023/07/26 04:51:11;;;;;;;10.10;3.33;;;10.00;99.90;;;;;;5045509;28;20428;-56
2023/07/26 04:53:39;;;;;;;7.57;3.17;;;9.90;99.90;;;;;;5045007;28;20049;-56
2023/07/26 04:56:07;;;;;;;7.65;3.40;;;9.90;99.90;;;;;;5043356;28;20044;-57
2023/07/26 04:58:35;;;;;;;8.50;4.00;;;9.90;99.90;;;;;;5043098;28;20060;-57
2023/07/26 05:01:02;;;;;;;8.82;3.30;;;9.90;99.90;;;;;;5033550;28;20042;-56
2023/07/26 05:03:30;;;;;;;4.93;2.85;;;9.90;99.90;;;;;;5030814;28;20037;-56
2023/07/26 05:05:58;;;;;;;8.00;3.03;;;9.90;99.90;;;;;;5043709;28;20053;-56
2023/07/26 05:08:26;;;;;;;7.20;2.75;;;10.00;99.90;;;;;;5040097;28;20641;-59
2023/07/26 05:10:54;;;;;;;6.20;3.22;;;10.00;99.90;;;;;;5044613;28;20049;-57
2023/07/26 05:13:23;;;;;;;6.57;3.13;;;9.90;99.90;;;;;;5043807;28;20590;-56
2023/07/26 05:15:50;;;;;;;8.10;3.67;;;10.00;99.90;;;;;;5042041;28;20056;-57
2023/07/26 05:18:18;;;;;;;8.10;3.97;;;10.00;99.90;;;;;;5038827;28;20044;-57
2023/07/26 05:20:49;;;;;;;11.55;3.83;;;10.00;99.90;;;;;;5040304;28;20037;-58
2023/07/26 05:23:18;;;;;;;7.00;3.40;;;10.00;99.90;;;;;;5042326;28;20233;-59
2023/07/26 05:25:46;;;;;;;12.15;3.20;;;10.00;99.90;;;;;;5043824;28;20053;-59
2023/07/26 05:28:13;;;;;;;8.68;2.60;;;10.00;99.90;;;;;;5046969;28;20033;-57
2023/07/26 05:30:42;;;;;;;9.70;3.65;;;10.10;99.90;;;;;;5046272;28;20068;-59
2023/07/26 05:33:10;;;;;;;8.32;2.78;;;10.10;99.90;;;;;;5042238;28;20037;-60
2023/07/26 05:35:39;;;;;;;6.97;3.22;;;10.10;99.90;;;;;;5042847;28;20041;-61
2023/07/26 05:38:07;;;;;;;8.50;3.00;;;10.10;99.90;;;;;;5042387;28;20053;-61
2023/07/26 05:40:35;;;;;;;9.32;3.45;;;10.20;99.90;;;;;;5042245;28;20056;-59
2023/07/26 05:43:03;;;;;;;7.70;2.90;;;10.30;99.90;;;;;;5050119;28;20049;-59
2023/07/26 05:45:31;;;;;;;8.50;2.95;;;10.30;99.90;;;;;;5047454;28;20072;-59
2023/07/26 05:47:59;;;;;;;10.30;3.15;;;10.40;99.90;;;;;;5051010;28;20046;-59
2023/07/26 05:50:26;;;;;;;8.38;2.78;;;10.50;99.90;;;;;;5049780;28;20052;-60
2023/07/26 05:52:54;;;;;;;5.72;2.55;;;10.60;99.90;;;;;;5045044;28;20045;-60
2023/07/26 05:55:22;;;;;;;9.43;3.00;;;10.70;99.90;;;;;;5047499;28;20033;-61
2023/07/26 05:57:49;;;;;;;7.03;2.78;;;10.80;99.90;;;;;;5046868;28;20056;-60
2023/07/26 06:00:19;;;;;;;3.88;2.42;;;10.80;99.90;;;;;;5046927;28;20392;-59
2023/07/26 06:02:46;;;;;;;7.22;2.97;;;10.90;99.90;;;;;;5048942;28;20045;-59
2023/07/26 06:05:14;;;;;;;5.47;2.92;;;10.90;99.90;;;;;;5054296;28;20064;-59
2023/07/26 06:07:42;;;;;;;7.03;3.13;;;11.00;99.90;;;;;;5046654;28;20049;-60
2023/07/26 06:10:10;;;;;;;7.80;3.03;;;11.10;99.90;;;;;;5048481;28;20041;-60
2023/07/26 06:12:37;;;;;;;7.93;2.90;;;11.10;99.90;;;;;;5050462;28;20060;-61
2023/07/26 06:15:06;;;;;;;8.35;3.10;;;11.20;99.90;;;;;;5049702;28;20049;-60
2023/07/26 06:17:36;;;;;;;5.75;2.80;;;11.40;99.90;;;;;;5046570;28;20037;-60
2023/07/26 06:20:06;;;;;;;6.78;2.83;;;11.40;99.90;;;;;;5040319;28;20049;-60
2023/07/26 06:22:34;;;;;;;11.63;4.22;;;11.60;99.90;;;;;;5048949;28;20044;-60
2023/07/26 06:25:02;;;;;;;8.23;2.92;;;11.70;99.90;;;;;;5047659;28;20393;-59
2023/07/26 06:27:30;;;;;;;10.90;3.00;;;11.80;99.90;;;;;;5047267;28;20040;-58
2023/07/26 06:29:58;;;;;;;6.85;2.75;;;12.00;99.90;;;;;;5047766;28;20056;-61
2023/07/26 06:32:26;;;;;;;8.93;2.83;;;12.10;99.90;;;;;;5054249;28;20059;-61
2023/07/26 06:34:54;;;;;;;8.95;2.92;;;12.20;99.90;;;;;;5049323;28;20049;-61
2023/07/26 06:37:21;;;;;;;8.35;2.97;;;12.30;99.90;;;;;;5048421;28;20044;-61
2023/07/26 06:39:49;;;;;;;8.27;2.80;;;12.40;99.90;;;;;;5049418;28;20052;-60
2023/07/26 06:42:17;;;;;;;6.07;2.75;;;12.50;99.90;;;;;;5044485;28;20049;-59
2023/07/26 06:44:45;;;;;;;7.03;3.00;;;12.60;99.90;;;;;;5042855;28;20396;-60
2023/07/26 06:47:12;;;;;;;11.32;3.42;;;12.80;99.90;;;;;;5043201;28;20049;-60
2023/07/26 06:49:40;;;;;;;11.77;3.40;;;12.90;99.90;;;;;;5041720;28;20045;-60
2023/07/26 06:52:08;;;;;;;10.45;3.80;;;13.10;99.90;;;;;;5049632;28;20041;-57
2023/07/26 06:54:37;;;;;;;9.05;3.65;;;13.20;99.90;;;;;;5046885;28;20625;-60
2023/07/26 06:57:05;;;;;;;5.75;2.80;;;13.30;99.90;;;;;;5049677;28;20045;-60
2023/07/26 06:59:33;;;;;;;7.80;3.08;;;13.50;99.90;;;;;;5048159;28;20036;-59
2023/07/26 07:02:00;;;;;;;10.35;3.30;;;13.70;99.90;;;;;;5048180;28;20048;-61
2023/07/26 07:04:28;;;;;;;7.70;3.70;;;13.80;99.90;;;;;;5047329;28;20045;-58
2023/07/26 07:06:59;;;;;;;8.15;3.42;;;13.90;99.90;;;;;;5044691;28;20049;-62
2023/07/26 07:09:27;;;;;;;12.68;4.18;;;14.00;99.90;;;;;;5045222;28;20056;-59
2023/07/26 07:11:54;;;;;;;7.10;3.30;;;14.10;99.90;;;;;;5047450;28;20045;-60
2023/07/26 07:14:22;;;;;;;9.35;3.13;;;14.10;99.90;;;;;;5045474;28;20045;-60
2023/07/26 07:16:50;;;;;;;9.70;3.42;;;14.30;99.90;;;;;;5044827;28;20252;-59
2023/07/26 07:19:18;;;;;;;9.50;3.22;;;14.40;99.90;;;;;;5043089;28;20045;-56
2023/07/26 07:21:45;;;;;;;6.15;2.80;;;14.50;99.90;;;;;;5045914;28;20389;-58
2023/07/26 07:24:13;;;;;;;6.60;3.08;;;14.60;99.90;;;;;;5047780;28;20040;-56
2023/07/26 07:26:41;;;;;;;10.95;2.45;;;14.70;99.90;;;;;;5046627;28;20045;-56
2023/07/26 07:29:08;;;;;;;6.72;2.92;;;14.70;99.90;;;;;;5048778;28;20045;-57
2023/07/26 07:31:36;;;;;;;6.90;3.05;;;14.80;99.90;;;;;;5048119;28;20064;-57
2023/07/26 07:34:04;;;;;;;4.80;3.28;;;14.80;99.90;;;;;;5045557;28;20037;-60
2023/07/26 07:36:33;;;;;;;7.80;3.63;;;14.80;99.90;;;;;;5048477;28;20044;-60
2023/07/26 07:39:00;;;;;;;6.75;3.53;;;14.90;99.90;;;;;;5046552;28;20057;-59
2023/07/26 07:41:28;;;;;;;11.57;2.85;;;14.90;99.90;;;;;;5046451;28;20053;-61
2023/07/26 07:43:56;;;;;;;8.05;2.88;;;14.90;99.90;;;;;;5033302;28;20629;-59
2023/07/26 07:46:28;;;;;;;7.88;3.25;;;14.90;99.90;;;;;;5046964;28;20049;-59
2023/07/26 07:48:56;;;;;;;8.60;3.50;;;14.90;99.90;;;;;;5037604;28;20053;-58
2023/07/26 07:51:24;;;;;;;9.68;3.50;;;14.90;99.90;;;;;;5045928;28;20041;-61
2023/07/26 07:53:53;;;;;;;7.53;3.47;;;14.90;99.90;;;;;;5041891;28;20048;-56
2023/07/26 07:56:21;;;;;;;6.80;3.75;;;14.90;99.90;;;;;;5040011;28;20520;-61
2023/07/26 07:58:49;;;;;;;5.40;2.90;;;14.90;99.90;;;;;;5049169;28;20048;-59
2023/07/26 08:01:17;;;;;;;9.30;2.88;;;15.00;99.90;;;;;;5041376;28;20037;-56
2023/07/26 08:03:45;;;;;;;11.80;3.38;;;15.00;99.90;;;;;;5042134;28;20060;-58
2023/07/26 08:06:13;;;;;;;6.93;3.55;;;15.00;99.90;;;;;;5044282;28;20389;-58
2023/07/26 08:08:41;;;;;;;8.10;3.00;;;15.10;99.90;;;;;;5041789;28;20049;-57
2023/07/26 08:11:09;;;;;;;5.25;2.97;;;15.20;99.90;;;;;;5039194;28;20044;-56
2023/07/26 08:13:37;;;;;;;9.35;3.60;;;15.20;99.90;;;;;;5043315;28;20048;-57
2023/07/26 08:16:05;;;;;;;9.82;3.38;;;15.30;99.90;;;;;;5041090;28;20064;-57
2023/07/26 08:18:33;;;;;;;7.32;3.85;;;15.40;99.90;;;;;;5035592;28;20045;-58
2023/07/26 08:21:02;;;;;;;7.70;3.95;;;15.50;99.90;;;;;;5046004;28;20052;-58
2023/07/26 08:23:30;;;;;;;7.25;3.05;;;15.60;99.90;;;;;;5048711;28;20401;-60
2023/07/26 08:26:03;;;;;;;6.93;3.67;;;15.70;99.90;;;;;;5044139;28;20056;-60
2023/07/26 08:28:32;;;;;;;10.35;3.85;;;15.80;99.90;;;;;;5046769;28;20075;-57
2023/07/26 08:31:00;;;;;;;7.35;3.22;;;15.90;99.90;;;;;;5043266;28;20045;-60
2023/07/26 08:33:28;;;;;;;8.88;2.97;;;16.10;99.90;;;;;;5039135;28;21923;-61
2023/07/26 08:35:58;;;;;;;12.07;3.60;;;16.20;99.90;;;;;;5041432;28;20070;-60
2023/07/26 08:38:26;;;;;;;7.03;3.60;;;16.30;99.90;;;;;;5044151;28;20048;-61
2023/07/26 08:40:54;;;;;;;7.75;3.42;;;16.50;99.90;;;;;;5036304;28;20033;-60
2023/07/26 08:43:27;;;;;;;6.35;3.47;;;16.60;99.90;;;;;;5037921;28;20048;-58
2023/07/26 08:45:55;;;;;;;13.57;3.70;;;16.60;99.90;;;;;;5041124;28;20041;-61
2023/07/26 08:48:23;;;;;;;8.00;3.17;;;16.80;99.90;;;;;;5038364;28;20052;-60
2023/07/26 08:50:51;;;;;;;9.23;3.42;;;16.90;99.90;;;;;;5045272;28;20053;-59
2023/07/26 08:53:20;;;;;;;6.80;2.75;;;16.90;99.90;;;;;;5044330;28;20516;-59
2023/07/26 08:55:48;;;;;;;7.28;3.10;;;17.10;99.90;;;;;;5046358;28;20044;-59
2023/07/26 08:58:16;;;;;;;9.15;2.75;;;17.20;99.90;;;;;;5041438;28;20041;-58
2023/07/26 09:00:45;;;;;;;8.55;3.10;;;17.30;99.90;;;;;;5045216;28;20045;-60
2023/07/26 09:03:13;;;;;;;6.07;3.35;;;17.40;99.90;;;;;;5039779;28;20067;-61
2023/07/26 09:05:42;;;;;;;5.78;3.00;;;17.40;99.90;;;;;;5043704;28;20056;-58
2023/07/26 09:08:11;;;;;;;6.40;2.80;;;17.40;99.90;;;;;;5044254;28;20050;-60
2023/07/26 09:10:40;;;;;;;4.82;2.70;;;17.50;99.90;;;;;;5043312;28;20052;-58
2023/07/26 09:13:13;;;;;;;5.65;2.92;;;17.40;99.90;;;;;;5039577;28;20041;-62
2023/07/26 09:15:42;;;;;;;8.18;3.28;;;17.60;99.90;;;;;;5043050;28;20059;-57
2023/07/26 09:18:12;;;;;;;6.53;2.93;;;17.70;99.90;;;;;;5039789;28;20139;-58
2023/07/26 09:20:39;;;;;;;7.90;3.53;;;17.70;99.90;;;;;;5046065;28;20301;-59
2023/07/26 09:23:10;;;;;;;4.65;2.35;;;17.80;99.90;;;;;;5046924;28;20044;-60
2023/07/26 09:25:42;;;;;;;;;;;18.00;99.90;;;;;;5039211;28;20053;-61
2023/07/26 09:28:12;;;;;;;5.55;2.67;;;18.10;99.90;;;;;;5042213;28;19943;-61
2023/07/26 09:30:41;;;;;;;5.87;3.00;;;18.20;99.90;;;;;;5042743;28;20053;-61
2023/07/26 09:33:11;;;;;;;4.72;2.75;;;18.30;99.90;;;;;;5043694;28;20049;-62
2023/07/26 09:35:49;;;;;;;6.05;2.60;;;18.30;99.90;;;;;;5044448;28;20053;-60
2023/07/26 09:38:21;;;;;;;6.28;3.00;;;18.40;99.90;;;;;;5038311;28;20477;-60
2023/07/26 09:40:49;;;;;;;8.88;3.40;;;18.40;99.90;;;;;;5033610;28;20049;-61
2023/07/26 09:43:32;;;;;;;5.63;3.28;;;18.50;99.90;;;;;;5032749;28;20045;-57
2023/07/26 09:46:02;;;;;;;6.38;2.60;;;18.60;99.90;;;;;;5034799;28;20045;-59
2023/07/26 09:48:34;;;;;;;8.82;3.25;;;18.70;99.90;;;;;;5029163;28;20052;-62
2023/07/26 09:51:07;;;;;;;7.15;3.10;;;18.80;99.90;;;;;;5043798;28;20045;-62
2023/07/26 09:53:40;;;;;;;5.75;2.78;;;18.80;99.90;;;;;;5048480;28;20504;-63
2023/07/26 09:56:09;;;;;;;6.93;3.17;;;18.90;99.90;;;;;;5047237;28;20044;-58
2023/07/26 09:58:41;;;;;;;7.80;3.15;;;18.90;99.90;;;;;;5043949;28;20045;-58
2023/07/26 10:01:12;;;;;;;7.63;3.33;;;19.00;99.90;;;;;;5038250;28;20049;-57
2023/07/26 10:03:44;;;;;;;9.50;2.60;;;19.20;99.90;;;;;;5045041;28;20049;-57
2023/07/26 10:06:13;;;;;;;6.43;3.00;;;19.40;99.90;;;;;;5046370;28;20049;-56
2023/07/26 10:08:42;;;;;;;11.23;2.97;;;19.50;99.90;;;;;;5046778;28;20048;-62
2023/07/26 10:11:11;;;;;;;7.43;3.20;;;19.70;99.90;;;;;;5051914;28;20056;-61
2023/07/26 10:13:41;;;;;;;10.30;3.20;;;19.70;99.90;;;;;;5038815;28;20056;-59
2023/07/26 10:16:09;;;;;;;6.63;2.63;;;19.90;99.90;;;;;;5035015;28;20309;-57
2023/07/26 10:18:37;;;;;;;5.18;2.70;;;19.90;99.90;;;;;;5035823;28;20041;-60
2023/07/26 10:21:07;;;;;;;7.85;3.10;;;19.90;99.90;;;;;;5040976;28;20051;-59
2023/07/26 10:23:34;;;;;;;5.85;2.42;;;19.90;99.90;;;;;;5044553;28;20045;-62
2023/07/26 10:26:07;;;;;;;7.43;3.17;;;19.90;99.90;;;;;;5040772;28;20061;-58
2023/07/26 10:28:35;;;;;;;8.88;3.20;;;20.00;99.90;;;;;;5045002;28;20056;-61
2023/07/26 10:31:03;;;;;;;7.55;2.80;;;20.10;99.90;;;;;;5040096;28;20044;-61
2023/07/26 10:33:32;;;;;;;6.47;2.75;;;20.20;99.90;;;;;;5048501;28;20045;-62
2023/07/26 10:36:03;;;;;;;5.50;3.08;;;20.30;99.90;;;;;;5045709;28;20053;-63
2023/07/26 10:38:31;;;;;;;10.95;2.90;;;20.40;99.90;;;;;;5039590;28;20052;-62
2023/07/26 10:41:25;;;;;;;5.38;2.70;;;20.50;99.90;;;;;;5046437;28;20053;-61
2023/07/26 10:44:07;;;;;;;8.57;2.92;;;20.60;99.90;;;;;;5050441;28;20040;-62
2023/07/26 10:47:00;;;;;;;4.55;2.40;;;20.70;99.90;;;;;;5043042;28;20048;-62
2023/07/26 10:49:30;;;;;;;5.65;2.45;;;20.80;99.90;;;;;;5042382;28;20044;-61
2023/07/26 10:52:02;;;;;;;;;;;20.80;99.90;;;;;;5049622;28;20041;-60
2023/07/26 10:54:34;;;;;;;5.00;2.25;;;20.90;99.60;;;;;;5047367;28;19931;-58
2023/07/26 10:57:26;;;;;;;5.53;2.65;;;21.00;99.90;;;;;;5048787;28;20420;-58
2023/07/26 11:00:17;;;;;;;6.65;3.17;;;21.10;99.70;;;;;;5045903;28;20052;-61
2023/07/26 11:02:50;;;;;;;9.50;2.78;;;21.20;99.90;;;;;;5039944;28;20056;-58
2023/07/26 11:05:22;;;;;;;4.63;2.83;;;21.40;99.90;;;;;;5047555;28;20401;-58
2023/07/26 11:08:19;;;;;;;7.05;3.10;;;21.50;99.70;;;;;;5047050;28;20404;-61
2023/07/26 11:10:51;;;;;;;7.07;2.90;;;21.70;99.90;;;;;;5046490;28;20044;-62
2023/07/26 11:13:26;;;;;;;9.93;2.83;;;21.70;99.90;;;;;;5047790;28;20049;-61
2023/07/26 11:15:54;;;;;;;6.20;2.58;;;21.90;99.90;;;;;;5047171;28;20047;-63
2023/07/26 11:18:42;;;;;;;4.90;2.67;;;22.10;99.00;;;;;;5042134;28;20033;-63
2023/07/26 11:21:16;;;;;;;7.95;2.78;;;22.30;98.70;;;;;;5047335;28;20052;-58
2023/07/26 11:23:45;;;;;;;8.80;2.90;;;22.50;98.40;;;;;;5040257;28;20037;-58
2023/07/26 11:26:12;;;;;;;6.13;3.10;;;22.60;97.60;;;;;;5043763;28;20505;-59
2023/07/26 11:28:41;;;;;;;7.70;2.80;;;22.60;96.70;;;;;;5041290;28;20053;-58
2023/07/26 11:31:18;;;;;;;6.20;2.40;;;22.60;96.10;;;;;;5040819;28;20037;-60
2023/07/26 11:33:47;;;;;;;7.63;2.97;;;22.40;96.50;;;;;;5041087;28;20064;-58
2023/07/26 11:36:20;;;;;;;5.10;2.72;;;22.40;95.40;;;;;;5046389;28;20392;-61
2023/07/26 11:38:48;;;;;;;3.28;2.15;;;22.20;94.70;;;;;;5041559;28;20216;-58
2023/07/26 11:41:20;;;;;;;4.63;2.85;;;22.10;95.40;;;;;;5039879;28;20049;-59
2023/07/26 11:43:49;;;;;;;5.97;2.78;;;22.10;95.70;;;;;;5043438;28;20046;-59
2023/07/26 11:46:29;;;;;;;6.22;3.05;;;22.20;95.00;;;;;;5030537;28;20045;-58
2023/07/26 11:48:57;;;;;;;3.80;2.45;;;22.30;95.50;;;;;;5038877;28;20048;-60
2023/07/26 11:51:25;;;;;;;6.75;2.67;;;22.40;95.90;;;;;;5046794;28;20055;-61
2023/07/26 11:53:57;;;;;;;4.43;2.47;;;22.60;95.40;;;;;;5047156;28;20037;-62
2023/07/26 11:56:33;;;;;;;3.92;2.85;;;22.70;95.00;;;;;;5040863;28;20049;-62
2023/07/26 11:59:02;;;;;;;3.60;2.33;;;22.80;95.00;;;;;;5038430;28;20409;-63
2023/07/26 12:01:32;;;;;;;4.30;2.40;;;22.80;94.80;;;;;;5039266;28;20048;-62
2023/07/26 12:04:01;;;;;;;4.07;2.25;;;22.70;94.00;;;;;;5042088;28;20067;-61
2023/07/26 12:06:30;;;;;;;5.97;2.60;;;22.70;94.20;;;;;;5040214;28;20041;-62
2023/07/26 12:09:09;;;;;;;10.63;2.10;;;22.60;94.60;;;;;;5041304;28;20551;-62
2023/07/26 12:11:48;;;;;;;5.78;1.77;;;22.70;94.40;;;;;;5046021;28;20053;-59
2023/07/26 12:14:16;;;;;;;3.78;1.75;;;22.80;93.90;;;;;;5031719;28;20046;-59
2023/07/26 12:16:49;;;;;;;3.72;2.15;;;22.90;93.00;;;;;;5039631;28;20060;-59
2023/07/26 12:19:25;;;;;;;2.58;1.98;;;23.10;92.10;;;;;;5043293;28;20048;-58
2023/07/26 12:21:53;;;;;;;3.38;1.85;;;23.40;91.20;;;;;;5041838;28;20049;-58
2023/07/26 12:24:23;;;;;;;4.43;2.17;;;23.80;91.50;;;;;;5042975;28;20053;-59
2023/07/26 12:26:51;;;;;;;3.63;2.28;;;24.20;91.20;;;;;;5044542;28;20510;-57
2023/07/26 12:29:27;;;;;;;4.18;2.35;;;24.50;90.00;;;;;;5042239;28;20052;-58
2023/07/26 12:32:02;;;;;;;5.20;2.13;;;24.30;88.80;;;;;;5043164;28;20053;-58
2023/07/26 12:34:33;;;;;;;4.70;2.58;;;24.20;89.50;;;;;;5050214;28;20067;-58
2023/07/26 12:37:00;;;;;;;3.42;2.28;;;23.90;90.10;;;;;;5042882;28;20120;-58
2023/07/26 12:39:28;;;;;;;3.88;1.90;;;23.90;90.30;;;;;;5047192;28;20041;-58
2023/07/26 12:41:56;;;;;;;5.95;2.55;;;23.70;90.30;;;;;;5038767;28;20053;-60
2023/07/26 12:44:27;;;;;;;4.22;2.10;;;23.70;91.00;;;;;;5034111;28;20053;-59
2023/07/26 12:46:55;;;;;;;5.07;2.42;;;23.90;90.90;;;;;;5036171;28;20048;-58
2023/07/26 12:49:42;;;;;;;4.65;2.75;;;24.00;91.00;;;;;;5038406;28;20412;-58
2023/07/26 12:52:10;;;;;;;3.25;2.17;;;24.20;91.50;;;;;;5039065;28;20480;-58
2023/07/26 12:54:38;;;;;;;8.90;2.75;;;24.50;91.50;;;;;;5039921;28;20049;-59
2023/07/26 12:57:06;;;;;;;4.07;2.15;;;24.90;91.90;;;;;;5029060;28;20041;-59
2023/07/26 12:59:34;;;;;;;6.57;2.42;;;25.20;89.20;;;;;;5036470;28;20091;-58